Time;durP1;ratioP1;P1;durP2;ratioP2;P2;SDS_P1;SDS_P2;PMS_P1;PMS_P2;Temp;Humidity;BMP_temperature;BMP_pressure;BME280_temperature;BME280_humidity;BME280_pressure;Samples;Min_cycle;Max_cycle;Signal;HPM_P1;HPM_P2
2022/12/14 00:01:45;;;;;;;0.40;0.40;;;12.40;66.20;;;;;;5112708;28;20470;-62
2022/12/14 00:04:36;;;;;;;0.40;0.40;;;12.40;65.70;;;;;;5112240;28;20432;-62
2022/12/14 00:07:24;;;;;;;0.40;0.40;;;12.40;66.50;;;;;;5112376;28;21032;-64
2022/12/14 00:10:12;;;;;;;0.40;0.40;;;12.40;67.60;;;;;;5111640;28;20833;-63
2022/12/14 00:13:01;;;;;;;0.50;0.50;;;12.60;67.60;;;;;;5112047;28;20427;-63
2022/12/14 00:15:49;;;;;;;0.50;0.50;;;12.70;67.40;;;;;;5111606;28;20794;-64
2022/12/14 00:18:39;;;;;;;0.40;0.40;;;12.90;67.10;;;;;;5111797;28;20910;-64
2022/12/14 00:21:28;;;;;;;0.40;0.40;;;13.00;66.80;;;;;;5111829;28;20465;-64
2022/12/14 00:24:16;;;;;;;0.40;0.40;;;13.10;66.70;;;;;;5115455;28;20422;-64
2022/12/14 00:27:04;;;;;;;0.40;0.40;;;13.20;66.30;;;;;;5115299;28;20421;-64
2022/12/14 00:29:52;;;;;;;1.23;1.23;;;13.20;66.40;;;;;;5114800;28;20563;-64
2022/12/14 00:32:40;;;;;;;0.40;0.40;;;13.30;66.50;;;;;;5115008;28;20413;-64
2022/12/14 00:35:30;;;;;;;0.40;0.40;;;13.20;65.90;;;;;;5115056;28;20437;-64
2022/12/14 00:38:18;;;;;;;0.40;0.40;;;13.30;66.10;;;;;;5114758;28;20445;-64
2022/12/14 00:41:06;;;;;;;2.00;1.90;;;13.20;65.50;;;;;;5114653;28;20501;-64
2022/12/14 00:43:54;;;;;;;0.43;0.43;;;13.20;65.30;;;;;;5114863;28;20873;-64
2022/12/14 00:46:42;;;;;;;0.60;0.60;;;13.10;65.40;;;;;;5114752;28;20428;-64
2022/12/14 00:49:30;;;;;;;0.73;0.73;;;13.00;65.50;;;;;;5114964;28;20199;-64
2022/12/14 00:52:20;;;;;;;0.40;0.40;;;13.00;65.50;;;;;;5115113;28;20457;-64
2022/12/14 00:55:08;;;;;;;0.40;0.40;;;12.90;65.40;;;;;;5114989;28;20426;-64
2022/12/14 00:57:56;;;;;;;0.40;0.40;;;12.70;64.60;;;;;;5114381;28;21046;-64
2022/12/14 01:00:45;;;;;;;0.40;0.40;;;12.80;65.10;;;;;;5114397;28;20448;-64
2022/12/14 01:03:33;;;;;;;0.53;0.53;;;12.70;65.40;;;;;;5115668;28;20518;-64
2022/12/14 01:06:22;;;;;;;0.40;0.40;;;12.60;65.30;;;;;;5114430;28;20445;-64
2022/12/14 01:09:12;;;;;;;0.40;0.40;;;12.50;65.10;;;;;;5114757;28;20524;-64
2022/12/14 01:12:00;;;;;;;0.87;0.87;;;12.50;65.40;;;;;;5114917;28;20838;-64
2022/12/14 01:14:49;;;;;;;3.17;2.83;;;12.40;65.40;;;;;;5115112;28;20426;-63
2022/12/14 01:17:37;;;;;;;0.40;0.40;;;12.50;65.60;;;;;;5114449;28;20441;-64
2022/12/14 01:20:25;;;;;;;3.10;2.80;;;12.50;66.60;;;;;;5114273;28;20421;-64
2022/12/14 01:23:14;;;;;;;2.07;1.97;;;12.60;67.00;;;;;;5114818;28;20417;-64
2022/12/14 01:26:03;;;;;;;0.40;0.40;;;12.70;66.80;;;;;;5114503;28;20525;-63
2022/12/14 01:28:55;;;;;;;2.00;1.90;;;12.80;66.50;;;;;;5114671;28;20961;-64
2022/12/14 01:31:43;;;;;;;1.13;1.13;;;12.90;66.40;;;;;;5114982;28;20961;-64
2022/12/14 01:34:35;;;;;;;0.40;0.40;;;13.00;66.30;;;;;;5114659;28;20979;-64
2022/12/14 01:37:23;;;;;;;0.40;0.40;;;11.30;64.40;;;;;;5114500;28;20591;-64
2022/12/14 01:40:12;;;;;;;0.40;0.40;;;13.00;65.80;;;;;;5114575;28;20508;-64
2022/12/14 01:43:01;;;;;;;0.40;0.40;;;13.10;65.90;;;;;;5114315;28;20422;-64
2022/12/14 01:45:49;;;;;;;0.40;0.40;;;13.00;65.30;;;;;;5114581;28;20530;-64
2022/12/14 01:48:37;;;;;;;0.40;0.40;;;13.00;65.40;;;;;;5114367;28;20448;-64
2022/12/14 01:51:27;;;;;;;0.50;0.50;;;13.00;64.80;;;;;;5114364;28;20465;-69
2022/12/14 01:54:16;;;;;;;0.40;0.40;;;12.90;65.20;;;;;;5113891;28;20800;-64
2022/12/14 01:57:04;;;;;;;0.40;0.40;;;12.80;65.30;;;;;;5113862;28;20504;-64
2022/12/14 01:59:55;;;;;;;0.40;0.40;;;12.80;65.10;;;;;;5113803;28;20638;-64
2022/12/14 02:02:55;;;;;;;0.50;0.50;;;12.70;64.70;;;;;;5113698;28;20667;-64
2022/12/14 02:05:47;;;;;;;0.40;0.40;;;12.60;64.30;;;;;;5114397;28;20418;-64
2022/12/14 02:08:36;;;;;;;0.40;0.40;;;12.50;64.80;;;;;;5114084;28;20448;-64
2022/12/14 02:11:44;;;;;;;0.57;0.57;;;12.40;64.90;;;;;;5113574;28;20469;-64
2022/12/14 02:14:33;;;;;;;0.40;0.40;;;12.40;65.20;;;;;;5106379;28;20436;-64
2022/12/14 02:17:22;;;;;;;0.40;0.40;;;12.30;65.00;;;;;;5113354;28;20849;-64
2022/12/14 02:20:12;;;;;;;1.00;1.00;;;12.30;65.10;;;;;;5113195;28;20434;-63
2022/12/14 02:23:34;;;;;;;0.40;0.40;;;12.30;65.00;;;;;;5114288;28;20425;-63
2022/12/14 02:26:49;;;;;;;0.97;0.97;;;12.40;66.60;;;;;;5114970;28;20422;-64
2022/12/14 02:29:53;;;;;;;4.00;3.73;;;12.50;66.60;;;;;;5115841;28;20422;-64
2022/12/14 02:33:12;;;;;;;2.93;2.73;;;12.70;66.30;;;;;;5115997;28;20229;-64
2022/12/14 02:36:05;;;;;;;0.40;0.40;;;12.90;66.10;;;;;;5115785;28;21020;-64
2022/12/14 02:39:01;;;;;;;0.70;0.70;;;13.00;65.90;;;;;;5114914;28;20437;-64
2022/12/14 02:42:01;;;;;;;0.70;0.70;;;13.10;65.60;;;;;;5133106;28;20437;-64
2022/12/14 02:44:59;;;;;;;0.50;0.50;;;13.20;65.70;;;;;;5133410;28;20424;-64
2022/12/14 02:47:54;;;;;;;0.60;0.60;;;13.20;65.20;;;;;;5130615;28;20506;-64
2022/12/14 02:50:47;;;;;;;1.17;1.10;;;13.20;65.10;;;;;;5131591;28;20422;-64
2022/12/14 02:53:42;;;;;;;0.77;0.77;;;13.20;64.90;;;;;;5132095;28;20202;-65
2022/12/14 02:56:36;;;;;;;0.40;0.40;;;13.20;64.10;;;;;;5131119;28;20654;-64
2022/12/14 02:59:25;;;;;;;0.40;0.40;;;13.10;64.20;;;;;;5132187;28;20696;-64
2022/12/14 03:02:15;;;;;;;0.60;0.60;;;13.10;64.40;;;;;;5133493;28;20710;-64
2022/12/14 03:05:04;;;;;;;0.40;0.40;;;13.00;64.40;;;;;;5133590;28;20421;-64
2022/12/14 03:07:55;;;;;;;0.40;0.40;;;12.90;64.70;;;;;;5133255;28;20223;-64
2022/12/14 03:10:48;;;;;;;0.40;0.40;;;12.90;64.70;;;;;;5132535;28;20492;-64
2022/12/14 03:13:41;;;;;;;0.50;0.50;;;12.90;64.50;;;;;;5124463;28;20492;-64
2022/12/14 03:16:32;;;;;;;0.40;0.40;;;12.80;64.40;;;;;;5112510;28;20414;-64
2022/12/14 03:19:24;;;;;;;0.50;0.50;;;12.70;64.30;;;;;;5112727;28;20822;-64
2022/12/14 03:22:16;;;;;;;0.50;0.50;;;12.70;64.10;;;;;;5111648;28;20425;-64
2022/12/14 03:25:09;;;;;;;0.40;0.40;;;12.60;63.70;;;;;;5111847;28;20874;-64
2022/12/14 03:28:04;;;;;;;0.40;0.40;;;12.50;63.90;;;;;;5112102;28;20891;-63
2022/12/14 03:30:55;;;;;;;0.40;0.40;;;12.40;64.30;;;;;;5110530;28;20512;-63
2022/12/14 03:33:49;;;;;;;0.40;0.40;;;12.30;64.10;;;;;;5111283;28;20989;-64
2022/12/14 03:36:43;;;;;;;1.00;1.00;;;12.30;64.70;;;;;;5111766;28;20962;-64
2022/12/14 03:39:35;;;;;;;0.40;0.40;;;12.20;64.70;;;;;;5112377;28;20422;-64
2022/12/14 03:42:30;;;;;;;0.40;0.40;;;12.20;64.60;;;;;;5110757;28;20500;-64
2022/12/14 03:45:21;;;;;;;0.40;0.40;;;12.20;64.70;;;;;;5111103;28;20413;-64
2022/12/14 03:48:18;;;;;;;1.27;1.27;;;12.30;66.10;;;;;;5111866;28;20972;-64
2022/12/14 03:51:13;;;;;;;0.40;0.40;;;12.40;65.70;;;;;;5111068;28;20428;-64
2022/12/14 03:54:07;;;;;;;0.40;0.40;;;12.60;65.80;;;;;;5111277;28;20460;-64
2022/12/14 03:57:00;;;;;;;1.27;1.27;;;12.70;65.50;;;;;;5114454;28;20435;-64
2022/12/14 03:59:53;;;;;;;0.40;0.40;;;12.80;65.50;;;;;;5115764;28;21034;-64
2022/12/14 04:02:48;;;;;;;0.40;0.40;;;12.90;65.40;;;;;;5116141;28;20875;-64
2022/12/14 04:05:40;;;;;;;0.50;0.50;;;12.90;64.80;;;;;;5116422;28;20432;-64
2022/12/14 04:08:41;;;;;;;0.40;0.40;;;12.90;64.60;;;;;;5115243;28;20449;-64
2022/12/14 04:21:09;;;;;;;0.40;0.40;;;12.70;64.60;;;;;;5115022;28;20795;-64
2022/12/14 04:27:12;;;;;;;0.40;0.40;;;12.50;71.70;;;;;;5115471;28;20417;-64
2022/12/14 04:30:00;;;;;;;0.40;0.40;;;12.50;63.50;;;;;;5114235;28;20417;-64
2022/12/14 04:32:51;;;;;;;0.40;0.40;;;12.50;64.30;;;;;;5114987;28;20985;-64
2022/12/14 04:35:42;;;;;;;0.40;0.40;;;12.40;63.60;;;;;;5115113;28;20417;-64
2022/12/14 04:38:36;;;;;;;0.40;0.40;;;12.40;63.50;;;;;;5114384;28;20524;-64
2022/12/14 04:41:28;;;;;;;0.40;0.40;;;12.40;64.20;;;;;;5114901;28;20428;-64
2022/12/14 04:44:22;;;;;;;0.40;0.40;;;12.40;63.70;;;;;;5114379;28;20790;-64
2022/12/14 04:47:13;;;;;;;0.80;0.80;;;12.20;64.10;;;;;;5114897;28;20504;-63
2022/12/14 04:50:07;;;;;;;0.40;0.40;;;12.30;63.60;;;;;;5114987;28;20425;-63
2022/12/14 04:53:00;;;;;;;0.40;0.40;;;12.20;63.70;;;;;;5114676;28;20964;-64
2022/12/14 04:55:53;;;;;;;0.40;0.40;;;12.20;64.60;;;;;;5114631;28;20965;-64
2022/12/14 04:58:42;;;;;;;1.10;1.10;;;12.10;64.30;;;;;;5115092;28;20529;-63
2022/12/14 05:01:44;;;;;;;0.40;0.40;;;12.10;64.50;;;;;;5114600;28;20418;-63
2022/12/14 05:04:53;;;;;;;1.23;1.23;;;12.10;65.20;;;;;;5114951;28;20437;-63
2022/12/14 05:07:52;;;;;;;0.40;0.40;;;12.20;65.60;;;;;;5113348;28;20464;-63
2022/12/14 05:10:43;;;;;;;0.50;0.50;;;12.30;65.60;;;;;;5114795;28;20424;-63
2022/12/14 05:13:39;;;;;;;0.40;0.40;;;12.40;65.50;;;;;;5114911;28;20548;-63
2022/12/14 05:16:27;;;;;;;0.40;0.40;;;12.40;65.10;;;;;;5114460;28;20526;-63
2022/12/14 05:19:17;;;;;;;0.40;0.40;;;12.50;65.10;;;;;;5114767;28;20468;-65
2022/12/14 05:22:06;;;;;;;0.40;0.40;;;12.60;64.30;;;;;;5115338;28;20424;-64
2022/12/14 05:24:55;;;;;;;0.40;0.40;;;12.50;64.40;;;;;;5114856;28;20421;-63
2022/12/14 05:27:43;;;;;;;0.40;0.40;;;12.50;63.80;;;;;;5115312;28;20527;-63
2022/12/14 05:30:31;;;;;;;0.40;0.40;;;12.40;64.00;;;;;;5113554;28;20870;-63
2022/12/14 05:33:20;;;;;;;0.40;0.40;;;12.40;63.80;;;;;;5112873;28;20861;-65
2022/12/14 05:36:10;;;;;;;1.10;1.10;;;12.40;63.80;;;;;;5114501;28;20422;-64
2022/12/14 05:38:58;;;;;;;0.40;0.40;;;12.40;63.50;;;;;;5114331;28;20438;-63
2022/12/14 05:41:46;;;;;;;1.10;1.10;;;12.30;63.50;;;;;;5115039;28;20420;-63
2022/12/14 05:44:34;;;;;;;4.27;1.73;;;12.30;63.10;;;;;;5113502;28;20417;-63
2022/12/14 05:47:22;;;;;;;0.40;0.40;;;12.30;63.50;;;;;;5113067;28;21028;-63
2022/12/14 05:50:10;;;;;;;0.40;0.40;;;12.30;62.40;;;;;;5114261;28;20191;-64
2022/12/14 05:53:00;;;;;;;1.10;1.10;;;12.20;62.30;;;;;;5114810;28;20564;-63
2022/12/14 05:55:49;;;;;;;0.40;0.40;;;12.10;62.50;;;;;;5123572;28;20471;-63
2022/12/14 05:58:37;;;;;;;0.60;0.60;;;12.10;62.70;;;;;;5126722;28;20520;-63
2022/12/14 06:01:26;;;;;;;0.40;0.40;;;12.00;63.30;;;;;;5122944;28;20513;-63
2022/12/14 06:04:14;;;;;;;0.40;0.40;;;11.90;63.10;;;;;;5114952;28;20467;-63
2022/12/14 06:07:02;;;;;;;0.40;0.40;;;11.90;63.60;;;;;;5112597;28;20429;-63
2022/12/14 06:09:52;;;;;;;0.70;0.70;;;11.90;64.20;;;;;;5112988;28;20506;-63
2022/12/14 06:12:40;;;;;;;0.40;0.40;;;11.80;63.30;;;;;;5113967;28;20463;-63
2022/12/14 06:15:28;;;;;;;0.40;0.40;;;11.90;65.50;;;;;;5112535;28;20493;-63
2022/12/14 06:18:23;;;;;;;1.00;1.00;;;12.00;65.50;;;;;;5113741;28;20447;-63
2022/12/14 06:21:11;;;;;;;1.93;1.73;;;12.20;65.40;;;;;;5111783;28;20796;-63
2022/12/14 06:23:59;;;;;;;0.40;0.40;;;12.30;65.10;;;;;;5111915;28;20909;-63
2022/12/14 06:26:49;;;;;;;0.40;0.40;;;12.40;65.00;;;;;;5113653;28;20444;-63
2022/12/14 06:29:37;;;;;;;0.40;0.40;;;12.50;64.80;;;;;;5112221;28;20566;-63
2022/12/14 06:32:26;;;;;;;1.10;1.00;;;12.60;64.30;;;;;;5112983;28;20800;-63
2022/12/14 06:35:14;;;;;;;0.67;0.67;;;12.60;63.80;;;;;;5112991;28;20463;-63
2022/12/14 06:38:02;;;;;;;0.40;0.40;;;12.50;63.80;;;;;;5111719;28;20464;-63
2022/12/14 06:40:50;;;;;;;0.40;0.40;;;12.60;63.10;;;;;;5107773;28;20579;-63
2022/12/14 06:43:40;;;;;;;1.13;1.13;;;12.50;62.90;;;;;;5114078;27;20478;-63
2022/12/14 06:46:28;;;;;;;0.50;0.50;;;12.50;63.30;;;;;;5094602;28;20454;-63
2022/12/14 06:49:17;;;;;;;0.40;0.40;;;12.50;63.00;;;;;;5092361;28;20973;-63
2022/12/14 06:52:05;;;;;;;4.47;3.40;;;12.50;62.60;;;;;;5092281;28;20423;-63
2022/12/14 06:54:53;;;;;;;0.40;0.40;;;12.50;63.20;;;;;;5091555;28;20583;-63
2022/12/14 06:57:41;;;;;;;0.40;0.40;;;12.50;62.90;;;;;;5091206;28;20537;-63
2022/12/14 07:00:31;;;;;;;0.50;0.50;;;12.40;62.30;;;;;;5092451;28;20506;-63
2022/12/14 07:03:19;;;;;;;0.40;0.40;;;12.30;62.60;;;;;;5101510;28;20425;-63
2022/12/14 07:06:08;;;;;;;0.97;0.97;;;12.30;61.80;;;;;;5118567;27;20520;-65
2022/12/14 07:08:58;;;;;;;0.40;0.40;;;12.20;62.20;;;;;;5115560;28;20437;-64
2022/12/14 07:11:49;;;;;;;0.40;0.40;;;12.20;62.70;;;;;;5120448;28;20414;-65
2022/12/14 07:14:37;;;;;;;0.40;0.40;;;12.10;62.60;;;;;;5118384;28;20840;-63
2022/12/14 07:17:26;;;;;;;0.40;0.40;;;11.90;62.10;;;;;;5116590;28;21065;-66
2022/12/14 07:20:14;;;;;;;0.40;0.40;;;11.90;63.30;;;;;;5112826;28;20933;-63
2022/12/14 07:23:02;;;;;;;0.40;0.40;;;11.90;63.90;;;;;;5112601;28;20837;-63
2022/12/14 07:25:51;;;;;;;0.40;0.40;;;11.90;65.00;;;;;;5103227;28;20518;-63
2022/12/14 07:28:41;;;;;;;0.40;0.40;;;12.10;65.20;;;;;;5111930;28;20441;-63
2022/12/14 07:31:30;;;;;;;0.40;0.40;;;12.30;65.10;;;;;;5117297;27;20425;-63
2022/12/14 07:34:19;;;;;;;1.20;1.20;;;12.40;64.70;;;;;;5138738;27;20451;-64
2022/12/14 07:37:07;;;;;;;2.70;2.50;;;12.80;64.10;;;;;;5138542;27;20943;-63
2022/12/14 07:39:55;;;;;;;0.90;0.90;;;12.70;64.10;;;;;;5139883;27;20436;-63
2022/12/14 07:42:43;;;;;;;3.90;1.70;;;12.90;63.90;;;;;;5138628;27;20574;-64
2022/12/14 07:45:31;;;;;;;0.50;0.50;;;13.00;63.70;;;;;;5133968;27;20417;-63
2022/12/14 07:48:19;;;;;;;0.40;0.40;;;13.10;63.50;;;;;;5118900;28;20339;-63
2022/12/14 07:51:10;;;;;;;0.70;0.70;;;13.10;63.30;;;;;;5113023;28;20532;-63
2022/12/14 07:53:59;;;;;;;0.40;0.40;;;13.10;63.00;;;;;;5118233;28;20851;-63
2022/12/14 07:56:47;;;;;;;0.57;0.57;;;13.10;63.00;;;;;;5119667;28;20325;-63
2022/12/14 07:59:36;;;;;;;0.40;0.40;;;13.10;63.30;;;;;;5118198;28;20437;-63
2022/12/14 08:02:24;;;;;;;0.40;0.40;;;12.90;63.50;;;;;;5118406;28;20516;-63
2022/12/14 08:05:13;;;;;;;0.40;0.40;;;13.00;62.40;;;;;;5118042;28;20191;-64
2022/12/14 08:08:02;;;;;;;0.50;0.50;;;12.90;62.60;;;;;;5118054;28;20826;-63
2022/12/14 08:10:50;;;;;;;0.40;0.40;;;12.80;62.20;;;;;;5117469;28;20195;-63
2022/12/14 08:13:39;;;;;;;0.40;0.40;;;12.80;62.60;;;;;;5125722;27;20424;-63
2022/12/14 08:16:27;;;;;;;0.40;0.40;;;12.60;62.40;;;;;;5138611;27;20417;-64
2022/12/14 08:19:16;;;;;;;0.40;0.40;;;12.60;62.40;;;;;;5138713;27;20472;-63
2022/12/14 08:22:04;;;;;;;0.40;0.40;;;12.50;61.90;;;;;;5138240;27;20208;-63
2022/12/14 08:24:53;;;;;;;0.40;0.40;;;12.40;62.50;;;;;;5121142;27;20558;-63
2022/12/14 08:27:41;;;;;;;0.40;0.40;;;12.20;62.40;;;;;;5117834;28;20441;-63
2022/12/14 08:30:30;;;;;;;0.40;0.40;;;12.20;62.60;;;;;;5117554;28;20468;-63
2022/12/14 08:33:18;;;;;;;1.23;1.23;;;12.20;62.20;;;;;;5118650;28;20433;-63
2022/12/14 08:36:08;;;;;;;5.83;4.83;;;12.10;63.10;;;;;;5117071;28;20549;-63
2022/12/14 08:38:57;;;;;;;0.40;0.40;;;12.10;63.20;;;;;;5118387;28;20857;-63
2022/12/14 08:41:47;;;;;;;0.50;0.50;;;12.20;63.80;;;;;;5114464;28;20436;-63
2022/12/14 08:44:35;;;;;;;1.27;1.27;;;12.30;64.00;;;;;;5113081;28;20417;-63
2022/12/14 08:47:23;;;;;;;0.63;0.63;;;12.40;64.40;;;;;;5114617;28;20522;-63
2022/12/14 08:50:11;;;;;;;0.40;0.40;;;12.50;64.10;;;;;;5114298;28;20435;-63
2022/12/14 08:52:59;;;;;;;0.40;0.40;;;12.60;64.00;;;;;;5113955;28;20485;-63
2022/12/14 08:55:47;;;;;;;0.40;0.40;;;12.70;63.80;;;;;;5113699;28;20546;-63
2022/12/14 08:58:38;;;;;;;1.27;1.17;;;12.70;63.10;;;;;;5113975;28;20593;-63
2022/12/14 09:01:28;;;;;;;0.50;0.50;;;12.70;63.30;;;;;;5104710;28;20288;-63
2022/12/14 09:04:21;;;;;;;1.87;1.50;;;12.70;63.20;;;;;;5094044;28;20275;-64
2022/12/14 09:07:09;;;;;;;0.40;0.40;;;12.60;62.30;;;;;;5093714;28;20928;-63
2022/12/14 09:09:57;;;;;;;0.40;0.40;;;12.60;62.70;;;;;;5092941;28;20513;-63
2022/12/14 09:12:45;;;;;;;0.40;0.40;;;12.60;62.80;;;;;;5133412;27;20201;-63
2022/12/14 09:15:34;;;;;;;0.40;0.40;;;12.60;63.00;;;;;;5094349;28;20986;-64
2022/12/14 09:18:22;;;;;;;0.40;0.40;;;12.50;63.10;;;;;;5093785;28;20467;-63
2022/12/14 09:21:11;;;;;;;0.40;0.40;;;12.50;62.70;;;;;;5094329;28;20679;-64
2022/12/14 09:24:00;;;;;;;0.40;0.40;;;12.50;63.00;;;;;;5094129;28;20427;-64
2022/12/14 09:26:48;;;;;;;0.50;0.50;;;12.40;63.00;;;;;;5092869;28;20192;-63
2022/12/14 09:29:38;;;;;;;0.40;0.40;;;12.40;63.00;;;;;;5093236;28;20953;-63
2022/12/14 09:32:29;;;;;;;0.40;0.40;;;12.30;62.70;;;;;;5093613;28;20548;-63
2022/12/14 09:35:17;;;;;;;0.40;0.40;;;12.30;62.70;;;;;;5093259;28;20547;-63
2022/12/14 09:38:05;;;;;;;1.03;1.03;;;12.30;62.80;;;;;;5104003;28;20958;-64
2022/12/14 09:40:57;;;;;;;0.40;0.40;;;12.20;62.90;;;;;;5112249;28;20950;-63
2022/12/14 09:43:52;;;;;;;0.57;0.57;;;12.20;63.20;;;;;;5113438;28;20429;-63
2022/12/14 09:46:50;;;;;;;0.60;0.60;;;12.20;63.40;;;;;;5130947;27;20528;-63
2022/12/14 09:49:44;;;;;;;1.37;1.37;;;12.30;63.30;;;;;;5133259;27;21001;-63
2022/12/14 09:52:38;;;;;;;0.40;0.40;;;12.30;64.10;;;;;;5134355;27;20477;-63
2022/12/14 09:55:31;;;;;;;0.40;0.40;;;12.40;64.60;;;;;;5133741;27;20521;-63
2022/12/14 09:58:23;;;;;;;0.40;0.40;;;12.50;64.70;;;;;;5133698;27;20871;-63
2022/12/14 10:01:41;;;;;;;0.40;0.40;;;12.60;64.40;;;;;;5134718;27;20504;-64
2022/12/14 10:04:44;;;;;;;0.40;0.40;;;12.60;64.30;;;;;;5133563;27;20421;-63
2022/12/14 10:07:41;;;;;;;0.47;0.47;;;12.70;64.10;;;;;;5134108;27;20437;-63
2022/12/14 10:10:37;;;;;;;0.50;0.50;;;12.70;64.30;;;;;;5133425;27;20554;-63
2022/12/14 10:13:41;;;;;;;0.40;0.40;;;12.70;63.30;;;;;;5129982;27;20581;-63
2022/12/14 10:16:38;;;;;;;0.40;0.40;;;12.60;63.50;;;;;;5120720;27;20551;-63
2022/12/14 10:19:34;;;;;;;0.40;0.40;;;12.60;63.20;;;;;;5112123;28;20974;-63
2022/12/14 10:22:29;;;;;;;0.40;0.40;;;12.60;63.60;;;;;;5113163;28;20428;-63
2022/12/14 10:25:20;;;;;;;0.40;0.40;;;12.60;64.10;;;;;;5112125;28;20504;-63
2022/12/14 10:28:15;;;;;;;0.40;0.40;;;12.50;62.90;;;;;;5112140;28;20447;-63
2022/12/14 10:31:05;;;;;;;2.33;2.20;;;12.50;63.50;;;;;;5112848;28;20429;-63
2022/12/14 10:33:59;;;;;;;0.40;0.40;;;12.50;63.40;;;;;;5112413;28;20426;-63
2022/12/14 10:36:53;;;;;;;0.90;0.90;;;12.50;63.80;;;;;;5112521;28;20461;-63
2022/12/14 10:39:50;;;;;;;0.50;0.50;;;12.40;63.80;;;;;;5091421;28;20422;-63
2022/12/14 10:42:44;;;;;;;0.47;0.47;;;12.40;63.80;;;;;;5092018;28;20509;-63
2022/12/14 10:45:42;;;;;;;0.40;0.40;;;12.30;63.70;;;;;;5109431;28;20968;-63
2022/12/14 10:48:40;;;;;;;0.40;0.40;;;12.30;63.40;;;;;;5112739;28;20669;-63
2022/12/14 10:51:36;;;;;;;0.60;0.60;;;12.20;64.10;;;;;;5112049;28;20426;-63
2022/12/14 10:54:29;;;;;;;0.40;0.40;;;12.30;65.10;;;;;;5111533;28;20446;-63
2022/12/14 10:57:19;;;;;;;0.40;0.40;;;12.60;73.70;;;;;;5111900;28;20590;-63
2022/12/14 11:00:12;;;;;;;0.40;0.40;;;12.70;64.40;;;;;;5085130;22;20704;-61
2022/12/14 11:03:14;;;;;;;0.40;0.40;;;12.90;64.90;;;;;;5051369;28;20431;-60
2022/12/14 11:06:10;;;;;;;1.10;1.10;;;13.10;64.50;;;;;;5051864;28;20428;-61
2022/12/14 11:08:59;;;;;;;0.40;0.40;;;13.30;64.20;;;;;;5051787;28;20531;-60
2022/12/14 11:11:47;;;;;;;0.40;0.40;;;13.40;64.10;;;;;;5051737;28;20452;-60
2022/12/14 11:14:37;;;;;;;0.50;0.50;;;13.50;63.90;;;;;;5051703;28;20424;-61
2022/12/14 11:17:33;;;;;;;0.60;0.60;;;13.60;63.80;;;;;;5051372;28;20597;-61
2022/12/14 11:20:25;;;;;;;0.77;0.77;;;13.60;63.60;;;;;;5051450;28;20229;-61
2022/12/14 11:23:19;;;;;;;0.40;0.40;;;13.60;63.40;;;;;;5051698;28;20452;-61
2022/12/14 11:26:12;;;;;;;0.63;0.63;;;13.60;63.60;;;;;;5051320;28;20459;-62
2022/12/14 11:29:03;;;;;;;1.00;1.00;;;13.60;63.60;;;;;;5051359;28;20606;-61
2022/12/14 11:31:52;;;;;;;0.50;0.50;;;13.50;63.50;;;;;;5051013;28;20510;-61
2022/12/14 11:34:41;;;;;;;0.40;0.40;;;13.50;63.40;;;;;;5061572;28;20509;-61
2022/12/14 11:37:31;;;;;;;3.03;2.53;;;13.40;63.60;;;;;;5065963;28;20547;-62
2022/12/14 11:40:22;;;;;;;0.40;0.40;;;13.30;64.10;;;;;;5050908;28;21042;-61
2022/12/14 11:43:23;;;;;;;0.40;0.40;;;13.30;63.30;;;;;;5052397;28;20851;-61
2022/12/14 11:46:12;;;;;;;1.03;1.03;;;13.20;63.30;;;;;;5067289;28;20684;-61
2022/12/14 11:49:01;;;;;;;0.40;0.40;;;13.10;63.60;;;;;;5071301;28;20440;-61
2022/12/14 11:52:02;;;;;;;0.40;0.40;;;13.10;63.50;;;;;;5070017;28;20530;-61
2022/12/14 11:55:10;;;;;;;0.40;0.40;;;13.00;63.40;;;;;;5070155;28;20484;-62
2022/12/14 11:57:59;;;;;;;1.13;1.13;;;13.00;63.60;;;;;;5071120;28;20241;-62
2022/12/14 12:00:51;;;;;;;0.40;0.40;;;12.90;63.40;;;;;;5049733;28;20284;-61
2022/12/14 12:03:44;;;;;;;1.63;1.53;;;12.90;63.20;;;;;;5050895;28;20428;-61
2022/12/14 12:06:33;;;;;;;0.40;0.40;;;12.80;63.50;;;;;;5050561;28;20193;-61
2022/12/14 12:09:28;;;;;;;0.47;0.47;;;12.80;64.90;;;;;;5051048;28;20225;-61
2022/12/14 12:12:18;;;;;;;0.73;0.73;;;12.90;65.00;;;;;;5051587;28;20283;-62
2022/12/14 12:15:17;;;;;;;0.40;0.40;;;13.00;64.80;;;;;;5051178;28;20207;-61
2022/12/14 12:18:13;;;;;;;0.40;0.40;;;13.10;64.70;;;;;;5053724;28;20507;-61
2022/12/14 12:21:05;;;;;;;0.40;0.40;;;13.20;64.50;;;;;;5054203;28;20562;-62
2022/12/14 12:24:01;;;;;;;0.63;0.63;;;13.30;64.60;;;;;;5054352;28;20424;-61
2022/12/14 12:26:52;;;;;;;0.57;0.57;;;13.30;64.40;;;;;;5055239;28;20936;-62
2022/12/14 12:29:46;;;;;;;0.43;0.43;;;13.30;64.30;;;;;;5055029;28;20817;-61
2022/12/14 12:32:39;;;;;;;0.43;0.43;;;13.40;64.30;;;;;;5053722;28;20971;-61
2022/12/14 12:35:34;;;;;;;0.40;0.40;;;13.30;64.00;;;;;;5053288;28;21026;-62
2022/12/14 12:38:38;;;;;;;0.40;0.40;;;13.30;66.90;;;;;;5040224;28;20459;-61
2022/12/14 12:41:33;;;;;;;0.60;0.60;;;13.30;64.20;;;;;;5033822;28;20516;-61
2022/12/14 12:44:25;;;;;;;0.40;0.40;;;13.20;63.60;;;;;;5033940;28;20202;-61
2022/12/14 12:47:18;;;;;;;0.40;0.40;;;13.20;63.80;;;;;;5033818;28;20456;-62
2022/12/14 12:50:29;;;;;;;0.40;0.40;;;13.10;63.90;;;;;;5033577;28;20772;-61
2022/12/14 12:53:22;;;;;;;1.23;1.23;;;13.00;63.80;;;;;;5033185;28;20512;-61
2022/12/14 12:56:13;;;;;;;0.40;0.40;;;13.00;63.80;;;;;;5034484;28;20202;-61
2022/12/14 12:59:04;;;;;;;0.40;0.40;;;12.90;64.20;;;;;;5040933;28;20586;-61
2022/12/14 13:01:56;;;;;;;0.40;0.40;;;12.90;63.30;;;;;;5054123;28;20205;-62
2022/12/14 13:04:46;;;;;;;2.50;2.40;;;12.80;64.00;;;;;;5054961;28;20424;-62
2022/12/14 13:07:43;;;;;;;0.40;0.40;;;12.80;63.60;;;;;;5053206;28;20940;-61
2022/12/14 13:10:34;;;;;;;0.40;0.40;;;12.80;64.20;;;;;;5054422;28;20554;-61
2022/12/14 13:13:25;;;;;;;0.40;0.40;;;12.70;63.90;;;;;;5054704;28;20966;-62
2022/12/14 13:16:19;;;;;;;0.70;0.70;;;12.70;64.20;;;;;;5052972;28;20420;-61
2022/12/14 13:19:21;;;;;;;0.40;0.40;;;12.70;65.10;;;;;;5054003;28;20968;-61
2022/12/14 13:22:32;;;;;;;0.80;0.80;;;12.80;65.40;;;;;;5053484;28;20420;-62
2022/12/14 13:25:25;;;;;;;0.50;0.50;;;12.80;65.20;;;;;;5052997;28;20515;-61
2022/12/14 13:28:41;;;;;;;0.90;0.90;;;13.00;64.80;;;;;;5053697;28;20428;-61
2022/12/14 13:31:40;;;;;;;0.40;0.40;;;13.00;65.00;;;;;;5054152;28;20452;-61
2022/12/14 13:34:41;;;;;;;0.60;0.60;;;13.10;64.90;;;;;;5054542;28;20420;-61
2022/12/14 13:37:42;;;;;;;0.43;0.43;;;13.20;64.90;;;;;;5048287;28;20471;-61
2022/12/14 13:40:44;;;;;;;0.40;0.40;;;13.20;64.70;;;;;;5032662;28;21020;-61
2022/12/14 13:43:59;;;;;;;0.40;0.40;;;13.20;64.60;;;;;;5034594;28;20243;-61
2022/12/14 13:46:58;;;;;;;0.40;0.40;;;13.10;64.30;;;;;;5032550;28;20851;-61
2022/12/14 13:49:51;;;;;;;0.40;0.40;;;13.10;64.20;;;;;;5033761;28;20262;-61
2022/12/14 13:53:03;;;;;;;1.43;1.43;;;13.10;64.40;;;;;;5033237;28;20201;-62
2022/12/14 13:55:55;;;;;;;0.40;0.40;;;13.00;64.30;;;;;;5033082;28;20198;-61
2022/12/14 13:58:45;;;;;;;0.40;0.40;;;13.00;64.40;;;;;;5038592;28;20229;-61
2022/12/14 14:01:56;;;;;;;0.40;0.40;;;12.90;64.50;;;;;;5052443;28;20225;-61
2022/12/14 14:04:45;;;;;;;0.40;0.40;;;12.90;64.50;;;;;;5052885;28;20258;-62
2022/12/14 14:07:48;;;;;;;0.40;0.40;;;12.80;64.50;;;;;;5052749;28;20278;-61
2022/12/14 14:10:38;;;;;;;0.40;0.40;;;12.80;64.20;;;;;;5052743;28;20428;-61
2022/12/14 14:14:03;;;;;;;0.40;0.40;;;12.70;64.40;;;;;;5052779;28;20197;-62
2022/12/14 14:16:57;;;;;;;0.40;0.40;;;12.70;64.30;;;;;;5052352;28;20420;-61
2022/12/14 14:19:45;;;;;;;0.50;0.50;;;12.70;64.50;;;;;;5051909;28;20859;-61
2022/12/14 14:22:36;;;;;;;1.07;0.97;;;12.70;64.40;;;;;;5051178;28;20301;-61
2022/12/14 14:25:39;;;;;;;0.40;0.40;;;12.60;64.20;;;;;;5051520;28;20287;-62
2022/12/14 14:28:29;;;;;;;0.40;0.40;;;12.60;64.20;;;;;;5052019;28;20477;-61
2022/12/14 14:31:18;;;;;;;1.37;1.37;;;12.60;64.50;;;;;;5051795;28;20205;-61
2022/12/14 14:34:16;;;;;;;0.50;0.50;;;12.60;65.20;;;;;;5051920;28;20427;-61
2022/12/14 14:37:24;;;;;;;1.50;1.50;;;12.60;65.70;;;;;;5052106;28;20763;-62
2022/12/14 14:40:28;;;;;;;1.43;1.37;;;12.70;65.60;;;;;;5051361;28;20490;-61
2022/12/14 14:43:39;;;;;;;0.40;0.40;;;12.80;66.10;;;;;;5051525;28;20850;-61
2022/12/14 14:46:34;;;;;;;0.40;0.40;;;13.00;65.20;;;;;;5051238;28;20535;-62
2022/12/14 14:49:29;;;;;;;0.40;0.40;;;13.00;65.00;;;;;;5051304;28;20297;-61
2022/12/14 14:52:46;;;;;;;0.40;0.40;;;13.10;64.80;;;;;;5051251;28;20620;-62
2022/12/14 14:55:55;;;;;;;2.50;2.30;;;13.10;64.60;;;;;;5051404;28;20424;-61
2022/12/14 14:58:43;;;;;;;0.40;0.40;;;13.20;64.50;;;;;;5050772;28;20256;-61
2022/12/14 15:01:31;;;;;;;0.40;0.40;;;13.20;64.40;;;;;;5052470;28;20565;-61
2022/12/14 15:04:25;;;;;;;0.40;0.40;;;13.20;64.60;;;;;;5051200;28;20844;-61
2022/12/14 15:07:17;;;;;;;1.07;1.07;;;13.20;64.50;;;;;;5051579;28;20207;-61
2022/12/14 15:10:16;;;;;;;0.40;0.40;;;13.10;64.20;;;;;;5052034;28;20260;-61
2022/12/14 15:13:19;;;;;;;0.40;0.40;;;13.10;63.70;;;;;;5051469;28;20243;-61